sensor_id;sensor_type;location;lat;lon;timestamp;pressure;altitude;pressure_sealevel;temperature;humidity
21086;BME280;72320;50.082;20.000;2023-09-19T00:00:31;98488.66;;;18.89;100.00
21086;BME280;72320;50.082;20.000;2023-09-19T00:02:04;98496.41;;;18.92;100.00
21086;BME280;72320;50.082;20.000;2023-09-19T00:03:37;98497.25;;;18.93;100.00
21086;BME280;72320;50.082;20.000;2023-09-19T00:05:11;98502.63;;;18.93;100.00
21086;BME280;72320;50.082;20.000;2023-09-19T00:06:43;98493.72;;;18.92;100.00
21086;BME280;72320;50.082;20.000;2023-09-19T00:08:17;98493.53;;;18.94;100.00
21086;BME280;72320;50.082;20.000;2023-09-19T00:09:51;98505.13;;;18.94;100.00
21086;BME280;72320;50.082;20.000;2023-09-19T00:11:23;98504.09;;;18.95;100.00
21086;BME280;72320;50.082;20.000;2023-09-19T00:12:58;98496.88;;;18.96;100.00
21086;BME280;72320;50.082;20.000;2023-09-19T00:14:32;98496.88;;;18.96;100.00
21086;BME280;72320;50.082;20.000;2023-09-19T00:16:10;98490.31;;;18.98;100.00
21086;BME280;72320;50.082;20.000;2023-09-19T00:17:44;98494.69;;;18.99;100.00
21086;BME280;72320;50.082;20.000;2023-09-19T00:19:17;98497.84;;;19.03;100.00
21086;BME280;72320;50.082;20.000;2023-09-19T00:20:50;98493.28;;;19.04;100.00
21086;BME280;72320;50.082;20.000;2023-09-19T00:22:23;98491.28;;;19.06;100.00
21086;BME280;72320;50.082;20.000;2023-09-19T00:23:56;98494.63;;;19.08;100.00
21086;BME280;72320;50.082;20.000;2023-09-19T00:25:29;98493.41;;;19.10;100.00
21086;BME280;72320;50.082;20.000;2023-09-19T00:27:02;98491.56;;;19.11;100.00
21086;BME280;72320;50.082;20.000;2023-09-19T00:28:35;98488.53;;;19.14;100.00
21086;BME280;72320;50.082;20.000;2023-09-19T00:30:10;98490.22;;;19.15;100.00
21086;BME280;72320;50.082;20.000;2023-09-19T00:31:45;98489.69;;;19.19;100.00
21086;BME280;72320;50.082;20.000;2023-09-19T00:33:19;98488.66;;;19.20;100.00
21086;BME280;72320;50.082;20.000;2023-09-19T00:34:52;98484.97;;;19.21;100.00
21086;BME280;72320;50.082;20.000;2023-09-19T00:36:25;98483.09;;;19.22;100.00
21086;BME280;72320;50.082;20.000;2023-09-19T00:37:58;98481.25;;;19.22;100.00
21086;BME280;72320;50.082;20.000;2023-09-19T00:39:32;98480.03;;;19.25;100.00
21086;BME280;72320;50.082;20.000;2023-09-19T00:41:04;98476.19;;;19.27;100.00
21086;BME280;72320;50.082;20.000;2023-09-19T00:42:45;98475.63;;;19.32;100.00
21086;BME280;72320;50.082;20.000;2023-09-19T00:44:18;98483.34;;;19.35;100.00
21086;BME280;72320;50.082;20.000;2023-09-19T00:45:54;98482.13;;;19.38;100.00
21086;BME280;72320;50.082;20.000;2023-09-19T00:47:29;98479.25;;;19.39;100.00
21086;BME280;72320;50.082;20.000;2023-09-19T00:49:02;98481.94;;;19.39;100.00
21086;BME280;72320;50.082;20.000;2023-09-19T00:50:36;98481.94;;;19.39;100.00
21086;BME280;72320;50.082;20.000;2023-09-19T00:52:12;98480.78;;;19.42;100.00
21086;BME280;72320;50.082;20.000;2023-09-19T00:53:46;98478.25;;;19.40;100.00
21086;BME280;72320;50.082;20.000;2023-09-19T00:55:20;98482.63;;;19.41;100.00
21086;BME280;72320;50.082;20.000;2023-09-19T00:56:53;98489.69;;;19.42;100.00
21086;BME280;72320;50.082;20.000;2023-09-19T00:58:26;98495.72;;;19.44;100.00
21086;BME280;72320;50.082;20.000;2023-09-19T01:00:01;98489.31;;;19.45;100.00
21086;BME280;72320;50.082;20.000;2023-09-19T01:01:35;98490.97;;;19.46;100.00
21086;BME280;72320;50.082;20.000;2023-09-19T01:03:13;98496.34;;;19.46;100.00
21086;BME280;72320;50.082;20.000;2023-09-19T01:04:46;98493.03;;;19.44;100.00
21086;BME280;72320;50.082;20.000;2023-09-19T01:06:20;98487.44;;;19.46;100.00
21086;BME280;72320;50.082;20.000;2023-09-19T01:07:54;98493.84;;;19.45;100.00
21086;BME280;72320;50.082;20.000;2023-09-19T01:09:27;98486.63;;;19.45;100.00
21086;BME280;72320;50.082;20.000;2023-09-19T01:11:13;98488.00;;;19.41;100.00
21086;BME280;72320;50.082;20.000;2023-09-19T01:13:10;98492.44;;;19.34;100.00
21086;BME280;72320;50.082;20.000;2023-09-19T01:14:54;98484.78;;;19.23;100.00
21086;BME280;72320;50.082;20.000;2023-09-19T01:17:03;98495.09;;;19.11;100.00
21086;BME280;72320;50.082;20.000;2023-09-19T01:19:01;98493.66;;;19.00;100.00
21086;BME280;72320;50.082;20.000;2023-09-19T01:25:33;98475.91;;;18.52;100.00
21086;BME280;72320;50.082;20.000;2023-09-19T01:31:00;98460.66;;;17.97;100.00
21086;BME280;72320;50.082;20.000;2023-09-19T01:32:36;98470.91;;;17.85;100.00
21086;BME280;72320;50.082;20.000;2023-09-19T01:34:09;98470.06;;;17.85;100.00
21086;BME280;72320;50.082;20.000;2023-09-19T01:35:42;98465.91;;;17.82;100.00
21086;BME280;72320;50.082;20.000;2023-09-19T01:37:17;98461.84;;;17.78;100.00
21086;BME280;72320;50.082;20.000;2023-09-19T01:38:52;98460.69;;;17.73;100.00
21086;BME280;72320;50.082;20.000;2023-09-19T01:40:25;98455.13;;;17.66;100.00
21086;BME280;72320;50.082;20.000;2023-09-19T01:42:42;98462.88;;;17.61;100.00
21086;BME280;72320;50.082;20.000;2023-09-19T01:46:35;98460.19;;;17.53;100.00
21086;BME280;72320;50.082;20.000;2023-09-19T01:52:14;98453.63;;;17.55;100.00
21086;BME280;72320;50.082;20.000;2023-09-19T01:54:01;98451.78;;;17.56;100.00
21086;BME280;72320;50.082;20.000;2023-09-19T01:55:47;98448.59;;;17.52;100.00
21086;BME280;72320;50.082;20.000;2023-09-19T01:57:29;98450.78;;;17.49;100.00
21086;BME280;72320;50.082;20.000;2023-09-19T01:59:21;98453.66;;;17.47;100.00
21086;BME280;72320;50.082;20.000;2023-09-19T02:00:58;98450.81;;;17.41;100.00
21086;BME280;72320;50.082;20.000;2023-09-19T02:02:38;98443.75;;;17.40;100.00
21086;BME280;72320;50.082;20.000;2023-09-19T02:04:12;98446.59;;;17.38;100.00
21086;BME280;72320;50.082;20.000;2023-09-19T02:05:53;98446.09;;;17.43;100.00
21086;BME280;72320;50.082;20.000;2023-09-19T02:07:27;98447.59;;;17.45;100.00
21086;BME280;72320;50.082;20.000;2023-09-19T02:09:00;98458.66;;;17.50;100.00
21086;BME280;72320;50.082;20.000;2023-09-19T02:10:33;98447.75;;;17.52;100.00
21086;BME280;72320;50.082;20.000;2023-09-19T02:12:06;98445.06;;;17.52;100.00
21086;BME280;72320;50.082;20.000;2023-09-19T02:13:40;98446.94;;;17.51;100.00
21086;BME280;72320;50.082;20.000;2023-09-19T02:15:18;98436.38;;;17.50;100.00
21086;BME280;72320;50.082;20.000;2023-09-19T02:16:51;98446.94;;;17.51;100.00
21086;BME280;72320;50.082;20.000;2023-09-19T02:18:24;98445.78;;;17.54;100.00
21086;BME280;72320;50.082;20.000;2023-09-19T02:19:57;98449.78;;;17.58;100.00
21086;BME280;72320;50.082;20.000;2023-09-19T02:21:30;98450.59;;;17.58;100.00
21086;BME280;72320;50.082;20.000;2023-09-19T02:23:03;98443.25;;;17.60;100.00
21086;BME280;72320;50.082;20.000;2023-09-19T02:24:37;98439.19;;;17.64;100.00
21086;BME280;72320;50.082;20.000;2023-09-19T02:26:10;98445.75;;;17.70;100.00
21086;BME280;72320;50.082;20.000;2023-09-19T02:27:43;98435.53;;;17.74;100.00
21086;BME280;72320;50.082;20.000;2023-09-19T02:29:16;98442.25;;;17.78;100.00
21086;BME280;72320;50.082;20.000;2023-09-19T02:30:50;98437.03;;;17.76;100.00
21086;BME280;72320;50.082;20.000;2023-09-19T02:32:23;98442.06;;;17.79;100.00
21086;BME280;72320;50.082;20.000;2023-09-19T02:33:56;98430.31;;;17.80;100.00
21086;BME280;72320;50.082;20.000;2023-09-19T02:35:29;98428.63;;;17.79;100.00
21086;BME280;72320;50.082;20.000;2023-09-19T02:37:03;98433.69;;;17.82;100.00
21086;BME280;72320;50.082;20.000;2023-09-19T02:38:36;98425.63;;;17.82;100.00
21086;BME280;72320;50.082;20.000;2023-09-19T02:40:10;98431.97;;;17.81;100.00
21086;BME280;72320;50.082;20.000;2023-09-19T02:41:43;98423.94;;;17.81;100.00
21086;BME280;72320;50.082;20.000;2023-09-19T02:43:16;98419.56;;;17.80;100.00
21086;BME280;72320;50.082;20.000;2023-09-19T02:44:49;98414.22;;;17.80;100.00
21086;BME280;72320;50.082;20.000;2023-09-19T02:46:22;98423.28;;;17.79;100.00
21086;BME280;72320;50.082;20.000;2023-09-19T02:47:55;98415.22;;;17.79;100.00
21086;BME280;72320;50.082;20.000;2023-09-19T02:49:29;98416.88;;;17.80;100.00
21086;BME280;72320;50.082;20.000;2023-09-19T02:51:02;98413.19;;;17.81;100.00
21086;BME280;72320;50.082;20.000;2023-09-19T02:52:35;98409.66;;;17.81;100.00
21086;BME280;72320;50.082;20.000;2023-09-19T02:54:08;98405.66;;;17.85;100.00
21086;BME280;72320;50.082;20.000;2023-09-19T02:55:41;98400.09;;;17.86;100.00
21086;BME280;72320;50.082;20.000;2023-09-19T02:57:14;98400.09;;;17.86;100.00
21086;BME280;72320;50.082;20.000;2023-09-19T02:58:47;98399.91;;;17.88;100.00
21086;BME280;72320;50.082;20.000;2023-09-19T03:00:21;98402.28;;;17.91;100.00
21086;BME280;72320;50.082;20.000;2023-09-19T03:01:55;98403.94;;;17.92;100.00
21086;BME280;72320;50.082;20.000;2023-09-19T03:03:28;98401.25;;;17.92;100.00
21086;BME280;72320;50.082;20.000;2023-09-19T03:05:01;98393.38;;;17.90;100.00
21086;BME280;72320;50.082;20.000;2023-09-19T03:06:34;98401.44;;;17.90;100.00
21086;BME280;72320;50.082;20.000;2023-09-19T03:08:07;98396.09;;;17.82;100.00
21086;BME280;72320;50.082;20.000;2023-09-19T03:09:40;98390.06;;;17.80;100.00
21086;BME280;72320;50.082;20.000;2023-09-19T03:11:13;98387.53;;;17.79;100.00
21086;BME280;72320;50.082;20.000;2023-09-19T03:12:47;98389.38;;;17.78;100.00
21086;BME280;72320;50.082;20.000;2023-09-19T03:14:20;98379.66;;;17.77;100.00
21086;BME280;72320;50.082;20.000;2023-09-19T03:15:54;98377.97;;;17.84;100.00
21086;BME280;72320;50.082;20.000;2023-09-19T03:17:27;98375.63;;;17.89;100.00
21086;BME280;72320;50.082;20.000;2023-09-19T03:19:01;98367.03;;;17.94;100.00
21086;BME280;72320;50.082;20.000;2023-09-19T03:20:33;98365.16;;;17.95;100.00
21086;BME280;72320;50.082;20.000;2023-09-19T03:22:06;98370.34;;;18.04;100.00
21086;BME280;72320;50.082;20.000;2023-09-19T03:23:39;98367.13;;;18.09;100.00
21086;BME280;72320;50.082;20.000;2023-09-19T03:25:13;98366.94;;;18.10;100.00
21086;BME280;72320;50.082;20.000;2023-09-19T03:26:46;98358.88;;;18.18;100.00
21086;BME280;72320;50.082;20.000;2023-09-19T03:28:18;98359.22;;;18.15;100.00
21086;BME280;72320;50.082;20.000;2023-09-19T03:29:51;98359.41;;;18.14;100.00
21086;BME280;72320;50.082;20.000;2023-09-19T03:31:24;98356.72;;;18.14;100.00
21086;BME280;72320;50.082;20.000;2023-09-19T03:32:58;98352.00;;;18.16;100.00
21086;BME280;72320;50.082;20.000;2023-09-19T03:34:31;98348.97;;;18.19;100.00
21086;BME280;72320;50.082;20.000;2023-09-19T03:36:04;98344.44;;;18.19;100.00
21086;BME280;72320;50.082;20.000;2023-09-19T03:37:38;98346.75;;;18.23;100.00
21086;BME280;72320;50.082;20.000;2023-09-19T03:39:11;98344.91;;;18.23;100.00
21086;BME280;72320;50.082;20.000;2023-09-19T03:40:44;98338.38;;;18.26;100.00
21086;BME280;72320;50.082;20.000;2023-09-19T03:42:17;98341.53;;;18.29;100.00
21086;BME280;72320;50.082;20.000;2023-09-19T03:43:50;98343.19;;;18.30;100.00
21086;BME280;72320;50.082;20.000;2023-09-19T03:45:23;98339.19;;;18.26;100.00
21086;BME280;72320;50.082;20.000;2023-09-19T03:46:56;98341.53;;;18.29;100.00
21086;BME280;72320;50.082;20.000;2023-09-19T03:48:29;98339.47;;;18.31;100.00
21086;BME280;72320;50.082;20.000;2023-09-19T03:50:03;98340.81;;;18.35;100.00
21086;BME280;72320;50.082;20.000;2023-09-19T03:51:36;98340.63;;;18.37;100.00
21086;BME280;72320;50.082;20.000;2023-09-19T03:53:09;98343.69;;;18.34;100.00
21086;BME280;72320;50.082;20.000;2023-09-19T03:54:42;98341.00;;;18.34;100.00
21086;BME280;72320;50.082;20.000;2023-09-19T03:56:15;98342.03;;;18.33;100.00
21086;BME280;72320;50.082;20.000;2023-09-19T03:57:48;98345.34;;;18.35;100.00
21086;BME280;72320;50.082;20.000;2023-09-19T03:59:21;98341.84;;;18.34;100.00
21086;BME280;72320;50.082;20.000;2023-09-19T04:00:58;98336.47;;;18.34;100.00
21086;BME280;72320;50.082;20.000;2023-09-19T04:02:31;98344.34;;;18.36;100.00
21086;BME280;72320;50.082;20.000;2023-09-19T04:04:04;98322.84;;;18.36;100.00
21086;BME280;72320;50.082;20.000;2023-09-19T04:05:37;98332.38;;;18.38;100.00
21086;BME280;72320;50.082;20.000;2023-09-19T04:07:10;98331.38;;;18.39;100.00
21086;BME280;72320;50.082;20.000;2023-09-19T04:08:43;98329.38;;;18.41;100.00
21086;BME280;72320;50.082;20.000;2023-09-19T04:10:17;98326.31;;;18.44;100.00
21086;BME280;72320;50.082;20.000;2023-09-19T04:11:50;98329.50;;;18.48;100.00
21086;BME280;72320;50.082;20.000;2023-09-19T04:13:23;98324.28;;;18.46;100.00
21086;BME280;72320;50.082;20.000;2023-09-19T04:14:56;98329.66;;;18.46;100.00
21086;BME280;72320;50.082;20.000;2023-09-19T04:16:29;98325.28;;;18.45;100.00
21086;BME280;72320;50.082;20.000;2023-09-19T04:18:02;98322.47;;;18.47;100.00
21086;BME280;72320;50.082;20.000;2023-09-19T04:19:35;98323.28;;;18.48;100.00
21086;BME280;72320;50.082;20.000;2023-09-19T04:21:08;98318.91;;;18.46;100.00
21086;BME280;72320;50.082;20.000;2023-09-19T04:22:41;98324.97;;;18.49;100.00
21086;BME280;72320;50.082;20.000;2023-09-19T04:24:14;98327.66;;;18.49;100.00
21086;BME280;72320;50.082;20.000;2023-09-19T04:25:47;98332.66;;;18.52;100.00
21086;BME280;72320;50.082;20.000;2023-09-19T04:27:20;98331.47;;;18.54;100.00
21086;BME280;72320;50.082;20.000;2023-09-19T04:28:53;98336.66;;;18.56;100.00
21086;BME280;72320;50.082;20.000;2023-09-19T04:30:26;98336.94;;;18.61;100.00
21086;BME280;72320;50.082;20.000;2023-09-19T04:31:59;98326.19;;;18.61;100.00
21086;BME280;72320;50.082;20.000;2023-09-19T04:33:32;98321.84;;;18.60;100.00
21086;BME280;72320;50.082;20.000;2023-09-19T04:35:10;98320.16;;;18.59;100.00
21086;BME280;72320;50.082;20.000;2023-09-19T04:36:43;98315.16;;;18.56;100.00
21086;BME280;72320;50.082;20.000;2023-09-19T04:38:18;98324.91;;;18.57;100.00
21086;BME280;72320;50.082;20.000;2023-09-19T04:39:51;98321.19;;;18.58;100.00
21086;BME280;72320;50.082;20.000;2023-09-19T04:41:24;98330.47;;;18.55;100.00
21086;BME280;72320;50.082;20.000;2023-09-19T04:42:58;98322.72;;;18.52;100.00
21086;BME280;72320;50.082;20.000;2023-09-19T04:44:31;98328.94;;;18.53;100.00
21086;BME280;72320;50.082;20.000;2023-09-19T04:46:04;98327.94;;;18.54;100.00
21086;BME280;72320;50.082;20.000;2023-09-19T04:47:39;98324.41;;;18.53;100.00
21086;BME280;72320;50.082;20.000;2023-09-19T04:49:13;98328.28;;;18.51;100.00
21086;BME280;72320;50.082;20.000;2023-09-19T04:50:48;98330.16;;;18.50;100.00
21086;BME280;72320;50.082;20.000;2023-09-19T04:52:22;98334.69;;;18.50;100.00
21086;BME280;72320;50.082;20.000;2023-09-19T04:53:56;98338.03;;;18.52;100.00
21086;BME280;72320;50.082;20.000;2023-09-19T04:55:28;98339.69;;;18.53;100.00
21086;BME280;72320;50.082;20.000;2023-09-19T04:57:01;98340.38;;;18.55;100.00
21086;BME280;72320;50.082;20.000;2023-09-19T04:58:34;98336.66;;;18.56;100.00
21086;BME280;72320;50.082;20.000;2023-09-19T05:00:08;98348.44;;;18.55;100.00
21086;BME280;72320;50.082;20.000;2023-09-19T05:01:43;98353.84;;;18.46;100.00
21086;BME280;72320;50.082;20.000;2023-09-19T05:03:17;98352.34;;;18.44;100.00
21086;BME280;72320;50.082;20.000;2023-09-19T05:04:50;98362.91;;;18.45;100.00
21086;BME280;72320;50.082;20.000;2023-09-19T05:06:23;98362.63;;;18.40;100.00
21086;BME280;72320;50.082;20.000;2023-09-19T05:07:56;98365.19;;;18.34;100.00
21086;BME280;72320;50.082;20.000;2023-09-19T05:09:29;98361.38;;;18.20;100.00
21086;BME280;72320;50.082;20.000;2023-09-19T05:11:02;98362.34;;;18.27;100.00
21086;BME280;72320;50.082;20.000;2023-09-19T05:12:35;98356.94;;;18.35;100.00
21086;BME280;72320;50.082;20.000;2023-09-19T05:14:09;98363.28;;;18.42;100.00
21086;BME280;72320;50.082;20.000;2023-09-19T05:15:42;98358.22;;;18.48;100.00
21086;BME280;72320;50.082;20.000;2023-09-19T05:17:15;98358.69;;;18.51;100.00
21086;BME280;72320;50.082;20.000;2023-09-19T05:18:50;98358.69;;;18.51;100.00
21086;BME280;72320;50.082;20.000;2023-09-19T05:20:23;98359.34;;;18.53;100.00
21086;BME280;72320;50.082;20.000;2023-09-19T05:21:56;98356.81;;;18.52;100.00
21086;BME280;72320;50.082;20.000;2023-09-19T05:23:29;98348.78;;;18.52;100.00
21086;BME280;72320;50.082;20.000;2023-09-19T05:25:02;98350.28;;;18.54;100.00
21086;BME280;72320;50.082;20.000;2023-09-19T05:26:35;98341.81;;;18.88;100.00
21086;BME280;72320;50.082;20.000;2023-09-19T05:28:10;98343.25;;;18.99;100.00
21086;BME280;72320;50.082;20.000;2023-09-19T05:29:43;98341.56;;;18.75;100.00
21086;BME280;72320;50.082;20.000;2023-09-19T05:31:17;98340.28;;;18.71;100.00
21086;BME280;72320;50.082;20.000;2023-09-19T05:32:50;98346.50;;;18.71;100.00
21086;BME280;72320;50.082;20.000;2023-09-19T05:34:23;98345.28;;;18.74;100.00
21086;BME280;72320;50.082;20.000;2023-09-19T05:35:56;98350.13;;;18.79;100.00
21086;BME280;72320;50.082;20.000;2023-09-19T05:37:32;98350.78;;;18.81;100.00
21086;BME280;72320;50.082;20.000;2023-09-19T05:39:05;98356.81;;;18.83;100.00
21086;BME280;72320;50.082;20.000;2023-09-19T05:40:38;98357.50;;;18.85;100.00
21086;BME280;72320;50.082;20.000;2023-09-19T05:42:11;98366.38;;;18.85;100.00
21086;BME280;72320;50.082;20.000;2023-09-19T05:43:44;98366.72;;;18.82;100.00
21086;BME280;72320;50.082;20.000;2023-09-19T05:45:18;98366.72;;;18.82;100.00
21086;BME280;72320;50.082;20.000;2023-09-19T05:46:51;98359.69;;;18.81;100.00
21086;BME280;72320;50.082;20.000;2023-09-19T05:48:24;98371.28;;;18.82;100.00
21086;BME280;72320;50.082;20.000;2023-09-19T05:49:57;98374.25;;;18.87;100.00
21086;BME280;72320;50.082;20.000;2023-09-19T05:51:30;98368.38;;;18.91;100.00
21086;BME280;72320;50.082;20.000;2023-09-19T05:53:03;98373.19;;;18.96;100.00
21086;BME280;72320;50.082;20.000;2023-09-19T05:54:36;98373.66;;;18.99;100.00
21086;BME280;72320;50.082;20.000;2023-09-19T05:56:09;98376.63;;;19.05;100.00
21086;BME280;72320;50.082;20.000;2023-09-19T05:57:42;98374.44;;;19.08;100.00
21086;BME280;72320;50.082;20.000;2023-09-19T05:59:15;98374.91;;;19.12;100.00
21086;BME280;72320;50.082;20.000;2023-09-19T06:00:48;98375.19;;;19.17;100.00
21086;BME280;72320;50.082;20.000;2023-09-19T06:02:21;98379.41;;;19.19;100.00
21086;BME280;72320;50.082;20.000;2023-09-19T06:03:54;98383.56;;;19.22;100.00
21086;BME280;72320;50.082;20.000;2023-09-19T06:05:28;98376.16;;;19.24;100.00
21086;BME280;72320;50.082;20.000;2023-09-19T06:07:01;98381.72;;;19.22;100.00
21086;BME280;72320;50.082;20.000;2023-09-19T06:08:35;98381.59;;;19.16;100.00
21086;BME280;72320;50.082;20.000;2023-09-19T06:10:08;98385.84;;;19.10;100.00
21086;BME280;72320;50.082;20.000;2023-09-19T06:11:44;98384.69;;;19.05;100.00
21086;BME280;72320;50.082;20.000;2023-09-19T06:13:17;98400.38;;;19.01;100.00
21086;BME280;72320;50.082;20.000;2023-09-19T06:14:50;98392.69;;;18.98;100.00
21086;BME280;72320;50.082;20.000;2023-09-19T06:16:23;98395.72;;;18.95;100.00
21086;BME280;72320;50.082;20.000;2023-09-19T06:17:56;98393.41;;;18.92;100.00
21086;BME280;72320;50.082;20.000;2023-09-19T06:19:29;98395.59;;;18.88;100.00
21086;BME280;72320;50.082;20.000;2023-09-19T06:21:02;98394.28;;;18.84;100.00
21086;BME280;72320;50.082;20.000;2023-09-19T06:22:36;98393.16;;;18.79;100.00
21086;BME280;72320;50.082;20.000;2023-09-19T06:24:09;98394.34;;;18.76;100.00
21086;BME280;72320;50.082;20.000;2023-09-19T06:25:43;98393.34;;;18.77;100.00
21086;BME280;72320;50.082;20.000;2023-09-19T06:27:16;98393.34;;;18.77;100.00
21086;BME280;72320;50.082;20.000;2023-09-19T06:28:49;98397.69;;;18.78;100.00
21086;BME280;72320;50.082;20.000;2023-09-19T06:30:24;98395.66;;;18.80;100.00
21086;BME280;72320;50.082;20.000;2023-09-19T06:31:58;98391.94;;;18.81;100.00
21086;BME280;72320;50.082;20.000;2023-09-19T06:33:31;98392.31;;;18.78;100.00
21086;BME280;72320;50.082;20.000;2023-09-19T06:35:05;98392.31;;;18.78;100.00
21086;BME280;72320;50.082;20.000;2023-09-19T06:36:38;98383.59;;;18.76;100.00
21086;BME280;72320;50.082;20.000;2023-09-19T06:38:11;98384.31;;;18.70;100.00
21086;BME280;72320;50.082;20.000;2023-09-19T06:39:44;98389.69;;;18.70;100.00
21086;BME280;72320;50.082;20.000;2023-09-19T06:41:18;98385.16;;;18.70;100.00
21086;BME280;72320;50.082;20.000;2023-09-19T06:42:52;98386.16;;;18.69;100.00
21086;BME280;72320;50.082;20.000;2023-09-19T06:44:25;98393.22;;;18.62;100.00
21086;BME280;72320;50.082;20.000;2023-09-19T06:45:58;98391.91;;;18.58;100.00
21086;BME280;72320;50.082;20.000;2023-09-19T06:47:31;98398.94;;;18.59;100.00
21086;BME280;72320;50.082;20.000;2023-09-19T06:49:04;98387.34;;;18.59;100.00
21086;BME280;72320;50.082;20.000;2023-09-19T06:50:37;98392.53;;;18.60;100.00
21086;BME280;72320;50.082;20.000;2023-09-19T06:52:11;98394.41;;;18.60;100.00
21086;BME280;72320;50.082;20.000;2023-09-19T06:53:44;98396.75;;;18.63;100.00
21086;BME280;72320;50.082;20.000;2023-09-19T06:55:22;98397.06;;;18.68;100.00
21086;BME280;72320;50.082;20.000;2023-09-19T06:56:55;98398.75;;;18.69;100.00
21086;BME280;72320;50.082;20.000;2023-09-19T06:58:28;98409.34;;;18.70;100.00
21086;BME280;72320;50.082;20.000;2023-09-19T07:00:02;98411.19;;;18.70;100.00
21086;BME280;72320;50.082;20.000;2023-09-19T07:01:35;98410.50;;;18.68;100.00
21086;BME280;72320;50.082;20.000;2023-09-19T07:03:09;98415.03;;;18.67;100.00
21086;BME280;72320;50.082;20.000;2023-09-19T07:04:42;98413.53;;;18.65;100.00
21086;BME280;72320;50.082;20.000;2023-09-19T07:06:14;98410.84;;;18.65;100.00
21086;BME280;72320;50.082;20.000;2023-09-19T07:07:48;98413.72;;;18.63;100.00
21086;BME280;72320;50.082;20.000;2023-09-19T07:09:21;98424.66;;;18.62;100.00
21086;BME280;72320;50.082;20.000;2023-09-19T07:10:56;98419.28;;;18.62;100.00
21086;BME280;72320;50.082;20.000;2023-09-19T07:12:29;98426.31;;;18.63;100.00
21086;BME280;72320;50.082;20.000;2023-09-19T07:14:02;98425.28;;;18.64;100.00
21086;BME280;72320;50.082;20.000;2023-09-19T07:15:36;98426.13;;;18.64;100.00
21086;BME280;72320;50.082;20.000;2023-09-19T07:17:09;98427.66;;;18.67;100.00
21086;BME280;72320;50.082;20.000;2023-09-19T07:18:42;98421.44;;;18.66;100.00
21086;BME280;72320;50.082;20.000;2023-09-19T07:20:16;98426.63;;;18.68;100.00
21086;BME280;72320;50.082;20.000;2023-09-19T07:21:49;98421.09;;;18.69;100.00
21086;BME280;72320;50.082;20.000;2023-09-19T07:23:22;98420.72;;;18.72;100.00
21086;BME280;72320;50.082;20.000;2023-09-19T07:24:55;98427.59;;;18.75;100.00
21086;BME280;72320;50.082;20.000;2023-09-19T07:26:28;98433.28;;;18.80;100.00
21086;BME280;72320;50.082;20.000;2023-09-19T07:28:01;98428.56;;;18.82;100.00
21086;BME280;72320;50.082;20.000;2023-09-19T07:29:34;98424.50;;;18.86;100.00
21086;BME280;72320;50.082;20.000;2023-09-19T07:31:07;98425.59;;;19.00;100.00
21086;BME280;72320;50.082;20.000;2023-09-19T07:32:40;98428.75;;;19.04;100.00
21086;BME280;72320;50.082;20.000;2023-09-19T07:34:13;98421.38;;;19.06;100.00
21086;BME280;72320;50.082;20.000;2023-09-19T07:35:47;98432.13;;;19.06;100.00
21086;BME280;72320;50.082;20.000;2023-09-19T07:37:20;98420.03;;;19.01;100.00
21086;BME280;72320;50.082;20.000;2023-09-19T07:38:53;98420.63;;;19.12;100.00
21086;BME280;72320;50.082;20.000;2023-09-19T07:40:27;98429.38;;;19.51;100.00
21086;BME280;72320;50.082;20.000;2023-09-19T07:42:04;98427.72;;;19.50;100.00
21086;BME280;72320;50.082;20.000;2023-09-19T07:43:37;98432.34;;;19.19;100.00
21086;BME280;72320;50.082;20.000;2023-09-19T07:45:11;98435.75;;;19.13;100.00
21086;BME280;72320;50.082;20.000;2023-09-19T07:46:47;98444.53;;;19.07;100.00
21086;BME280;72320;50.082;20.000;2023-09-19T07:48:20;98442.38;;;19.02;100.00
21086;BME280;72320;50.082;20.000;2023-09-19T07:49:53;98439.88;;;19.00;100.00
21086;BME280;72320;50.082;20.000;2023-09-19T07:51:26;98440.59;;;18.94;100.00
21086;BME280;72320;50.082;20.000;2023-09-19T07:52:59;98435.22;;;18.94;100.00
21086;BME280;72320;50.082;20.000;2023-09-19T07:54:32;98436.22;;;18.93;100.00
21086;BME280;72320;50.082;20.000;2023-09-19T07:56:09;98435.41;;;18.93;100.00
21086;BME280;72320;50.082;20.000;2023-09-19T07:57:45;98438.09;;;18.93;100.00
21086;BME280;72320;50.082;20.000;2023-09-19T07:59:19;98434.25;;;18.87;100.00
21086;BME280;72320;50.082;20.000;2023-09-19T08:00:52;98439.31;;;18.82;100.00
21086;BME280;72320;50.082;20.000;2023-09-19T08:02:25;98437.81;;;18.80;100.00
21086;BME280;72320;50.082;20.000;2023-09-19T08:03:59;98450.44;;;18.79;100.00
21086;BME280;72320;50.082;20.000;2023-09-19T08:05:32;98447.25;;;18.76;100.00
21086;BME280;72320;50.082;20.000;2023-09-19T08:07:05;98450.13;;;18.74;100.00
21086;BME280;72320;50.082;20.000;2023-09-19T08:08:38;98446.41;;;18.75;100.00
21086;BME280;72320;50.082;20.000;2023-09-19T08:10:11;98448.44;;;18.73;100.00
21086;BME280;72320;50.082;20.000;2023-09-19T08:11:44;98450.31;;;18.72;100.00
21086;BME280;72320;50.082;20.000;2023-09-19T08:13:17;98447.97;;;18.69;100.00
21086;BME280;72320;50.082;20.000;2023-09-19T08:14:50;98442.75;;;18.68;100.00
21086;BME280;72320;50.082;20.000;2023-09-19T08:16:23;98450.47;;;18.71;100.00
21086;BME280;72320;50.082;20.000;2023-09-19T08:17:56;98447.78;;;18.71;100.00
21086;BME280;72320;50.082;20.000;2023-09-19T08:19:29;98451.97;;;18.73;100.00
21086;BME280;72320;50.082;20.000;2023-09-19T08:21:02;98450.47;;;18.71;100.00